Monday, September 26, 2016, 8:06 PM EDT
Back to Local

KCXY, Harrisburg Capital City

Location: New Cumberland, PA, United States Lat: 40.217
Local Time: 8:06 PM EDT ( 0:06 GMT) Lon: -76.85
Time Zone: US/Eastern Elev: 347 ft

Show me the last for .
Show Decoded

2016-09-26 18:56 METAR KCXY 262256Z 14006KT 10SM OVC022 18/15 A3001 RMK AO2 SLP162 T01780150 =
2016-09-26 18:16 METAR KCXY 262216Z 15006KT 8SM FEW008 BKN014 OVC024 18/15 A3001 RMK AO2
                 T01780150 =
2016-09-26 17:56 METAR KCXY 262156Z 15007KT 4SM BR OVC008 18/16 A3001 RMK AO2 RAE37 CIG 006V013
                 SLP161 P0001 T01780156 =
2016-09-26 17:41 METAR KCXY 262141Z 14011KT 2SM BR OVC007 18/16 A3001 RMK AO2 RAE37 CIG 005V012
                 P0001 T01780156 =
2016-09-26 17:22 METAR KCXY 262122Z 11005KT 1 1/2SM -RA BR OVC006 17/16 A3002 RMK AO2 CIG 005V010
                 P0001 T01720161 =
2016-09-26 17:13 METAR KCXY 262113Z 11005KT 1 1/4SM -RA BR OVC007 17/16 A3003 RMK AO2 CIG 005V010
                 P0000 T01720156 =
2016-09-26 16:56 METAR KCXY 262056Z 13004KT 1 1/2SM R08/6000VP6000FT -RA BR OVC007 17/16 A3003
                 RMK AO2 CIG 005V010 SLP170 P0001 60001 T01720161 55006 =
2016-09-26 16:13 METAR KCXY 262013Z 13007KT 1 3/4SM -RA BR BKN008 OVC012 18/16 A3003 RMK AO2 CIG
                 006V010 P0000 T01780161 =
2016-09-26 16:04 METAR KCXY 262004Z 13007KT 1 3/4SM -RA BR OVC010 18/16 A3002 RMK AO2 CIG 006V014
                 P0000 T01780156 =
2016-09-26 15:58 METAR KCXY 261958Z 14010KT 2SM -RA BR BKN008 OVC013 18/16 A3003 RMK AO2 CIG
                 006V011 P0000 T01780156 =
2016-09-26 15:56 METAR KCXY 261956Z 16009KT 3SM -RA BR BKN010 OVC013 18/16 A3003 RMK AO2 RAB47
                 CIG 006V012 SLP169 P0000 T01780156 =
2016-09-26 15:39 METAR KCXY 261939Z 14009KT 3SM BR OVC008 18/16 A3003 RMK AO2 CIG 007V013
                 T01780156 =
2016-09-26 15:16 METAR KCXY 261916Z 14008KT 3SM BR BKN010 OVC015 18/16 A3004 RMK AO2 CIG 008V012
                 T01830156 =
2016-09-26 14:56 METAR KCXY 261856Z 13007KT 6SM HZ OVC017 18/15 A3005 RMK AO2 SLP176 T01830150 =
2016-09-26 13:56 METAR KCXY 261756Z 18010KT 10SM OVC023 19/13 A3007 RMK AO2 SLP184 T01940133
                 10200 20133 56016 =
2016-09-26 12:56 METAR KCXY 261656Z 18009G15KT 10SM BKN026 OVC031 19/13 A3009 RMK AO2 SLP189
                 T01940133 =
2016-09-26 12:15 METAR KCXY 261615Z 00000KT 10SM BKN027 OVC033 19/13 A3010 RMK AO2 T01890133 =
2016-09-26 11:56 METAR KCXY 261556Z 09006KT 10SM OVC033 19/13 A3010 RMK AO2 SLP195 T01890128 =
2016-09-26 10:56 METAR KCXY 261456Z 10008KT 10SM OVC034 17/12 A3012 RMK AO2 SLP201 T01720117
                 58010 =
2016-09-26 09:56 METAR KCXY 261356Z 10007KT 10SM OVC034 16/09 A3013 RMK AO2 SLP205 T01560094 =
2016-09-26 08:56 METAR KCXY 261256Z 10006KT 10SM OVC038 14/08 A3014 RMK AO2 SLP209 T01390083 =
2016-09-26 07:56 METAR KCXY 261156Z 08005KT 10SM OVC037 13/08 A3015 RMK AO2 SLP212 T01330078
                 10133 20111 55001 =
2016-09-26 06:56 METAR KCXY 261056Z AUTO 09005KT 10SM OVC036 13/08 A3015 RMK AO2 SLP208 T01280083
                 =
2016-09-26 05:56 METAR KCXY 260956Z AUTO 08004KT 10SM OVC034 13/09 A3015 RMK AO2 SLP209 T01280089
                 =
2016-09-26 04:56 METAR KCXY 260856Z AUTO 00000KT 10SM BKN043 12/09 A3015 RMK AO2 SLP211 T01170094
                 55004 =
2016-09-26 03:56 METAR KCXY 260756Z AUTO 00000KT 10SM CLR 12/09 A3015 RMK AO2 SLP210 T01170089 =
2016-09-26 02:56 METAR KCXY 260656Z AUTO 00000KT 10SM CLR 12/09 A3015 RMK AO2 SLP212 T01170089 =
2016-09-26 01:56 METAR KCXY 260556Z AUTO 00000KT 10SM CLR 12/09 A3017 RMK AO2 SLP215 T01170089
                 10161 20117 58002 =
2016-09-26 00:56 METAR KCXY 260456Z AUTO 00000KT 10SM BKN110 12/09 A3017 RMK AO2 SLP218 T01220089
                 402220083 =
2016-09-25 23:56 METAR KCXY 260356Z AUTO 00000KT 10SM CLR 12/08 A3018 RMK AO2 SLP219 T01220083 =
2016-09-25 22:56 METAR KCXY 260256Z AUTO 00000KT 10SM CLR 13/08 A3017 RMK AO2 SLP217 T01280083
                 51008 =
2016-09-25 21:56 METAR KCXY 260156Z AUTO 23003KT 10SM CLR 13/08 A3017 RMK AO2 SLP218 T01330083 =
2016-09-25 20:56 METAR KCXY 260056Z 00000KT 10SM CLR 14/09 A3016 RMK AO2 SLP215 T01440089 =

Support USWX by starting your Amazon purchase here.